createdAt,value
2023-02-25T00:00:12.621Z,991.10
2023-02-25T00:01:12.627Z,991.13
2023-02-25T00:02:12.674Z,991.16
2023-02-25T00:03:12.666Z,991.11
2023-02-25T00:04:12.629Z,991.20
2023-02-25T00:05:12.629Z,991.11
2023-02-25T00:06:12.629Z,991.07
2023-02-25T00:07:12.630Z,991.15
2023-02-25T00:08:12.633Z,991.11
2023-02-25T00:09:12.634Z,991.12
2023-02-25T00:10:12.627Z,991.13
2023-02-25T00:11:12.642Z,991.13
2023-02-25T00:12:12.630Z,991.07
2023-02-25T00:13:18.442Z,991.13
2023-02-25T00:14:12.640Z,991.15
2023-02-25T00:15:12.667Z,991.15
2023-02-25T00:16:12.644Z,991.07
2023-02-25T00:17:12.710Z,991.17
2023-02-25T00:18:12.652Z,991.11
2023-02-25T00:19:12.692Z,991.14
2023-02-25T00:20:12.656Z,991.18
2023-02-25T00:21:12.650Z,991.11
2023-02-25T00:22:12.657Z,991.09
2023-02-25T00:23:12.652Z,991.11
2023-02-25T00:24:17.098Z,991.09
2023-02-25T00:25:12.667Z,991.07
2023-02-25T00:26:12.662Z,991.10
2023-02-25T00:27:12.657Z,991.11
2023-02-25T00:28:12.676Z,991.17
2023-02-25T00:29:12.676Z,991.17
2023-02-25T00:30:12.670Z,991.18
2023-02-25T00:31:12.849Z,991.21
2023-02-25T00:32:12.919Z,991.18
2023-02-25T00:33:12.708Z,991.27
2023-02-25T00:34:12.672Z,991.12
2023-02-25T00:35:12.696Z,991.18
2023-02-25T00:36:12.700Z,991.26
2023-02-25T00:37:12.709Z,991.23
2023-02-25T00:38:16.158Z,991.30
2023-02-25T00:39:12.733Z,991.32
2023-02-25T00:40:12.688Z,991.35
2023-02-25T00:41:12.814Z,991.38
2023-02-25T00:42:12.692Z,991.47
2023-02-25T00:43:12.707Z,991.45
2023-02-25T00:44:12.688Z,991.42
2023-02-25T00:45:12.706Z,991.47
2023-02-25T00:46:12.707Z,991.42
2023-02-25T00:47:12.723Z,991.46
2023-02-25T00:48:12.697Z,991.34
2023-02-25T00:49:21.186Z,991.32
2023-02-25T00:50:12.703Z,991.31
2023-02-25T00:51:12.710Z,991.32
2023-02-25T00:52:12.704Z,991.43
2023-02-25T00:53:12.711Z,991.45
2023-02-25T00:54:12.725Z,991.40
2023-02-25T00:55:12.710Z,991.40
2023-02-25T00:56:12.718Z,991.41
2023-02-25T00:57:12.715Z,991.39
2023-02-25T00:58:12.722Z,991.34
2023-02-25T00:59:12.715Z,991.37
2023-02-25T01:00:12.741Z,991.41
2023-02-25T01:01:12.762Z,991.45
2023-02-25T01:02:12.729Z,991.39
2023-02-25T01:03:12.744Z,991.49
2023-02-25T01:04:12.728Z,991.50
2023-02-25T01:05:12.732Z,991.50
2023-02-25T01:06:12.725Z,991.42
2023-02-25T01:07:12.728Z,991.46
2023-02-25T01:08:12.727Z,991.42
2023-02-25T01:09:12.740Z,991.40
2023-02-25T01:10:12.739Z,991.42
2023-02-25T01:11:12.741Z,991.48
2023-02-25T01:12:12.732Z,991.46
2023-02-25T01:13:12.744Z,991.48
2023-02-25T01:14:12.737Z,991.52
2023-02-25T01:15:12.743Z,991.46
2023-02-25T01:16:12.832Z,991.49
2023-02-25T01:17:12.750Z,991.51
2023-02-25T01:18:12.784Z,991.51
2023-02-25T01:19:12.808Z,991.55
2023-02-25T01:20:12.831Z,991.50
2023-02-25T01:21:12.756Z,991.53
2023-02-25T01:22:12.749Z,991.63
2023-02-25T01:23:12.754Z,991.61
2023-02-25T01:24:12.777Z,991.51
2023-02-25T01:25:12.757Z,991.54
2023-02-25T01:26:12.760Z,991.62
2023-02-25T01:27:12.759Z,991.60
2023-02-25T01:28:12.773Z,991.64
2023-02-25T01:29:12.768Z,991.66
2023-02-25T01:30:12.763Z,991.62
2023-02-25T01:31:12.958Z,991.66
2023-02-25T01:32:12.843Z,991.61
2023-02-25T01:33:12.777Z,991.65
2023-02-25T01:34:12.769Z,991.70
2023-02-25T01:35:12.819Z,991.67
2023-02-25T01:36:12.836Z,991.69
2023-02-25T01:37:12.793Z,991.74
2023-02-25T01:38:12.785Z,991.75
2023-02-25T01:39:12.780Z,991.76
2023-02-25T01:40:12.785Z,991.74
2023-02-25T01:41:12.783Z,991.74
2023-02-25T01:42:12.795Z,991.78
2023-02-25T01:43:12.797Z,991.78
2023-02-25T01:44:12.796Z,991.82
2023-02-25T01:45:12.800Z,991.80
2023-02-25T01:46:12.829Z,991.80
2023-02-25T01:47:12.804Z,991.78
2023-02-25T01:48:12.804Z,991.78
2023-02-25T01:49:12.800Z,991.76
2023-02-25T01:50:12.810Z,991.76
2023-02-25T01:51:12.833Z,991.76
2023-02-25T01:52:12.805Z,991.82
2023-02-25T01:53:12.806Z,991.80
2023-02-25T01:54:12.819Z,991.78
2023-02-25T01:55:12.808Z,991.72
2023-02-25T01:56:12.819Z,991.73
2023-02-25T01:57:12.824Z,991.76
2023-02-25T01:58:12.822Z,991.77
2023-02-25T01:59:12.829Z,991.76
2023-02-25T02:00:12.827Z,991.85
2023-02-25T02:01:13.000Z,991.81
2023-02-25T02:02:12.875Z,991.80
2023-02-25T02:03:12.830Z,991.79
2023-02-25T02:04:12.837Z,991.74
2023-02-25T02:05:12.829Z,991.74
2023-02-25T02:06:12.826Z,991.75
2023-02-25T02:07:12.867Z,991.78
2023-02-25T02:08:12.837Z,991.79
2023-02-25T02:09:12.837Z,991.75
2023-02-25T02:10:12.834Z,991.81
2023-02-25T02:11:12.851Z,991.77
2023-02-25T02:12:12.836Z,991.78
2023-02-25T02:13:12.845Z,991.75
2023-02-25T02:14:12.850Z,991.76
2023-02-25T02:15:12.857Z,991.75
2023-02-25T02:16:12.958Z,991.80
2023-02-25T02:17:12.877Z,991.71
2023-02-25T02:18:12.850Z,991.77
2023-02-25T02:19:12.850Z,991.72
2023-02-25T02:20:12.851Z,991.82
2023-02-25T02:21:12.861Z,991.70
2023-02-25T02:22:12.864Z,991.70
2023-02-25T02:23:12.885Z,991.78
2023-02-25T02:24:12.863Z,991.78
2023-02-25T02:25:12.859Z,991.77
2023-02-25T02:26:12.870Z,991.94
2023-02-25T02:27:12.867Z,991.80
2023-02-25T02:28:12.867Z,991.84
2023-02-25T02:29:12.874Z,991.91
2023-02-25T02:30:12.867Z,991.83
2023-02-25T02:31:12.983Z,991.83
2023-02-25T02:32:12.952Z,991.86
2023-02-25T02:33:12.878Z,991.91
2023-02-25T02:34:12.874Z,991.95
2023-02-25T02:35:12.882Z,991.94
2023-02-25T02:36:12.882Z,991.88
2023-02-25T02:37:12.888Z,991.90
2023-02-25T02:38:12.879Z,991.88
2023-02-25T02:39:12.910Z,991.86
2023-02-25T02:40:12.890Z,991.98
2023-02-25T02:41:12.887Z,991.98
2023-02-25T02:42:12.893Z,992.02
2023-02-25T02:43:12.893Z,991.99
2023-02-25T02:44:12.888Z,992.02
2023-02-25T02:45:12.887Z,992.02
2023-02-25T02:46:12.952Z,992.06
2023-02-25T02:47:12.897Z,992.03
2023-02-25T02:48:12.904Z,992.05
2023-02-25T02:49:12.902Z,992.07
2023-02-25T02:50:12.922Z,992.12
2023-02-25T02:51:12.898Z,992.13
2023-02-25T02:52:12.908Z,992.15
2023-02-25T02:53:12.898Z,992.13
2023-02-25T02:54:12.906Z,992.25
2023-02-25T02:55:12.937Z,992.13
2023-02-25T02:56:12.919Z,992.20
2023-02-25T02:57:13.004Z,992.19
2023-02-25T02:58:12.910Z,992.17
2023-02-25T02:59:12.922Z,992.22
2023-02-25T03:00:12.934Z,992.31
2023-02-25T03:01:12.985Z,992.30
2023-02-25T03:02:12.907Z,992.30
2023-02-25T03:03:12.917Z,992.34
2023-02-25T03:04:12.998Z,992.31
2023-02-25T03:05:12.918Z,992.34
2023-02-25T03:06:12.926Z,992.31
2023-02-25T03:07:12.917Z,992.36
2023-02-25T03:08:12.917Z,992.37
2023-02-25T03:09:12.916Z,992.37
2023-02-25T03:10:12.922Z,992.38
2023-02-25T03:11:12.949Z,992.33
2023-02-25T03:12:12.932Z,992.49
2023-02-25T03:13:12.948Z,992.40
2023-02-25T03:14:12.932Z,992.45
2023-02-25T03:15:12.923Z,992.41
2023-02-25T03:16:13.001Z,992.47
2023-02-25T03:17:12.924Z,992.55
2023-02-25T03:18:12.938Z,992.48
2023-02-25T03:19:12.930Z,992.43
2023-02-25T03:20:12.931Z,992.52
2023-02-25T03:21:12.932Z,992.54
2023-02-25T03:22:12.943Z,992.56
2023-02-25T03:23:12.936Z,992.62
2023-02-25T03:24:12.937Z,992.56
2023-02-25T03:25:12.942Z,992.64
2023-02-25T03:26:12.943Z,992.58
2023-02-25T03:27:12.971Z,992.61
2023-02-25T03:28:12.963Z,992.62
2023-02-25T03:29:12.956Z,992.68
2023-02-25T03:30:12.984Z,992.64
2023-02-25T03:31:12.950Z,992.70
2023-02-25T03:32:13.057Z,992.69
2023-02-25T03:33:12.963Z,992.78
2023-02-25T03:34:12.965Z,992.80
2023-02-25T03:35:12.967Z,992.73
2023-02-25T03:36:12.963Z,992.76
2023-02-25T03:37:12.967Z,992.81
2023-02-25T03:38:12.960Z,992.80
2023-02-25T03:39:12.970Z,992.82
2023-02-25T03:40:12.990Z,992.85
2023-02-25T03:41:12.965Z,992.84
2023-02-25T03:42:12.966Z,992.86
2023-02-25T03:43:12.989Z,992.74
2023-02-25T03:44:12.974Z,992.83
2023-02-25T03:45:12.981Z,992.82
2023-02-25T03:46:13.071Z,992.88
2023-02-25T03:47:12.979Z,992.87
2023-02-25T03:48:12.985Z,992.93
2023-02-25T03:49:12.980Z,992.97
2023-02-25T03:50:12.979Z,993.00
2023-02-25T03:51:12.979Z,993.00
2023-02-25T03:52:12.987Z,992.98
2023-02-25T03:53:12.979Z,993.02
2023-02-25T03:54:12.985Z,993.03
2023-02-25T03:55:12.990Z,993.09
2023-02-25T03:56:12.999Z,993.17
2023-02-25T03:57:12.983Z,993.01
2023-02-25T03:58:12.998Z,993.06
2023-02-25T03:59:13.007Z,993.14
2023-02-25T04:00:12.986Z,993.07
2023-02-25T04:01:14.400Z,993.14
2023-02-25T04:02:13.062Z,993.14
2023-02-25T04:03:12.993Z,993.13
2023-02-25T04:04:13.045Z,993.15
2023-02-25T04:05:12.996Z,993.20
2023-02-25T04:06:13.008Z,993.13
2023-02-25T04:07:12.992Z,993.15
2023-02-25T04:08:13.002Z,993.19
2023-02-25T04:09:13.002Z,993.23
2023-02-25T04:10:13.012Z,993.20
2023-02-25T04:11:13.000Z,993.25
2023-02-25T04:12:13.045Z,993.24
2023-02-25T04:13:13.024Z,993.24
2023-02-25T04:14:13.011Z,993.31
2023-02-25T04:15:13.028Z,993.34
2023-02-25T04:16:13.061Z,993.36
2023-02-25T04:17:13.096Z,993.33
2023-02-25T04:18:13.013Z,993.34
2023-02-25T04:19:13.006Z,993.37
2023-02-25T04:20:13.009Z,993.39
2023-02-25T04:21:13.015Z,993.38
2023-02-25T04:22:13.013Z,993.43
2023-02-25T04:23:13.020Z,993.43
2023-02-25T04:24:13.012Z,993.48
2023-02-25T04:25:13.025Z,993.46
2023-02-25T04:26:13.031Z,993.49
2023-02-25T04:27:13.025Z,993.52
2023-02-25T04:28:13.018Z,993.50
2023-02-25T04:29:13.030Z,993.50
2023-02-25T04:30:13.032Z,993.53
2023-02-25T04:31:13.210Z,993.50
2023-02-25T04:32:13.160Z,993.57
2023-02-25T04:33:13.035Z,993.57
2023-02-25T04:34:13.030Z,993.52
2023-02-25T04:35:13.032Z,993.56
2023-02-25T04:36:13.036Z,993.55
2023-02-25T04:37:13.044Z,993.61
2023-02-25T04:38:13.033Z,993.56
2023-02-25T04:39:13.043Z,993.60
2023-02-25T04:40:13.036Z,993.59
2023-02-25T04:41:13.037Z,993.63
2023-02-25T04:42:13.040Z,993.64
2023-02-25T04:43:13.046Z,993.61
2023-02-25T04:44:13.042Z,993.61
2023-02-25T04:45:13.042Z,993.65
2023-02-25T04:46:13.064Z,993.62
2023-02-25T04:47:13.076Z,993.58
2023-02-25T04:48:13.048Z,993.66
2023-02-25T04:49:13.057Z,993.59
2023-02-25T04:50:13.066Z,993.63
2023-02-25T04:51:13.058Z,993.63
2023-02-25T04:52:13.074Z,993.66
2023-02-25T04:53:13.053Z,993.65
2023-02-25T04:54:13.064Z,993.67
2023-02-25T04:55:13.063Z,993.62
2023-02-25T04:56:13.066Z,993.56
2023-02-25T04:57:13.073Z,993.64
2023-02-25T04:58:13.070Z,993.62
2023-02-25T04:59:13.064Z,993.68
2023-02-25T05:00:13.076Z,993.62
2023-02-25T05:01:13.074Z,993.67
2023-02-25T05:02:13.075Z,993.65
2023-02-25T05:03:13.099Z,993.66
2023-02-25T05:04:13.081Z,993.60
2023-02-25T05:05:13.172Z,993.61
2023-02-25T05:06:13.084Z,993.65
2023-02-25T05:07:13.084Z,993.65
2023-02-25T05:08:13.087Z,993.70
2023-02-25T05:09:13.087Z,993.68
2023-02-25T05:10:13.092Z,993.73
2023-02-25T05:11:13.088Z,993.72
2023-02-25T05:12:13.090Z,993.76
2023-02-25T05:13:13.105Z,993.72
2023-02-25T05:14:13.085Z,993.75
2023-02-25T05:15:13.092Z,993.74
2023-02-25T05:16:13.194Z,993.74
2023-02-25T05:17:13.097Z,993.75
2023-02-25T05:18:13.102Z,993.78
2023-02-25T05:19:13.117Z,993.80
2023-02-25T05:20:13.424Z,993.75
2023-02-25T05:21:13.105Z,993.79
2023-02-25T05:22:13.105Z,993.80
2023-02-25T05:23:13.100Z,993.78
2023-02-25T05:24:13.100Z,993.87
2023-02-25T05:25:13.103Z,993.79
2023-02-25T05:26:13.110Z,993.82
2023-02-25T05:27:13.106Z,993.84
2023-02-25T05:28:13.123Z,993.86
2023-02-25T05:29:13.128Z,993.91
2023-02-25T05:30:13.116Z,993.82
2023-02-25T05:31:13.287Z,993.83
2023-02-25T05:32:13.279Z,993.86
2023-02-25T05:33:13.120Z,993.88
2023-02-25T05:34:13.127Z,993.88
2023-02-25T05:35:13.146Z,993.91
2023-02-25T05:36:13.123Z,993.89
2023-02-25T05:37:13.126Z,993.91
2023-02-25T05:38:13.128Z,993.95
2023-02-25T05:39:13.143Z,993.90
2023-02-25T05:40:13.139Z,993.91
2023-02-25T05:41:13.121Z,994.00
2023-02-25T05:42:13.124Z,993.97
2023-02-25T05:43:13.123Z,993.94
2023-02-25T05:44:13.135Z,994.04
2023-02-25T05:45:13.137Z,994.00
2023-02-25T05:46:13.125Z,993.98
2023-02-25T05:47:13.196Z,994.02
2023-02-25T05:48:13.136Z,994.02
2023-02-25T05:49:13.133Z,994.09
2023-02-25T05:50:13.138Z,994.05
2023-02-25T05:51:13.173Z,994.07
2023-02-25T05:52:13.141Z,994.07
2023-02-25T05:53:13.138Z,994.07
2023-02-25T05:54:13.143Z,994.02
2023-02-25T05:55:13.151Z,994.11
2023-02-25T05:56:13.140Z,994.14
2023-02-25T05:57:13.140Z,994.10
2023-02-25T05:58:13.147Z,994.12
2023-02-25T05:59:13.153Z,994.15
2023-02-25T06:00:13.149Z,994.15
2023-02-25T06:01:13.176Z,994.18
2023-02-25T06:02:13.301Z,994.18
2023-02-25T06:03:13.176Z,994.20
2023-02-25T06:04:13.157Z,994.20
2023-02-25T06:05:13.157Z,994.22
2023-02-25T06:06:13.226Z,994.28
2023-02-25T06:07:13.187Z,994.27
2023-02-25T06:08:13.161Z,994.27
2023-02-25T06:09:13.157Z,994.34
2023-02-25T06:10:13.169Z,994.38
2023-02-25T06:11:13.162Z,994.41
2023-02-25T06:12:13.164Z,994.45
2023-02-25T06:13:13.164Z,994.46
2023-02-25T06:14:13.160Z,994.44
2023-02-25T06:15:13.168Z,994.51
2023-02-25T06:16:13.222Z,994.56
2023-02-25T06:17:13.166Z,994.61
2023-02-25T06:18:13.171Z,994.63
2023-02-25T06:19:13.171Z,994.64
2023-02-25T06:20:13.172Z,994.64
2023-02-25T06:21:13.169Z,994.70
2023-02-25T06:22:13.169Z,994.70
2023-02-25T06:23:13.198Z,994.75
2023-02-25T06:24:13.169Z,994.73
2023-02-25T06:25:13.172Z,994.82
2023-02-25T06:26:13.185Z,994.91
2023-02-25T06:27:13.182Z,994.92
2023-02-25T06:28:13.184Z,994.94
2023-02-25T06:29:13.184Z,994.92
2023-02-25T06:30:13.185Z,995.00
2023-02-25T06:31:13.266Z,995.07
2023-02-25T06:32:13.331Z,995.02
2023-02-25T06:33:13.193Z,995.07
2023-02-25T06:34:13.201Z,995.06
2023-02-25T06:35:13.192Z,995.03
2023-02-25T06:36:13.185Z,994.99
2023-02-25T06:37:14.527Z,995.05
2023-02-25T06:38:13.196Z,995.10
2023-02-25T06:39:13.217Z,995.08
2023-02-25T06:40:13.192Z,995.13
2023-02-25T06:41:13.194Z,995.11
2023-02-25T06:42:13.211Z,995.14
2023-02-25T06:43:13.197Z,995.13
2023-02-25T06:44:15.543Z,995.12
2023-02-25T06:45:13.204Z,995.13
2023-02-25T06:46:13.284Z,995.14
2023-02-25T06:47:13.210Z,995.16
2023-02-25T06:48:13.222Z,995.17
2023-02-25T06:49:13.209Z,995.20
2023-02-25T06:50:13.206Z,995.09
2023-02-25T06:51:13.204Z,995.20
2023-02-25T06:52:13.213Z,995.21
2023-02-25T06:53:13.214Z,995.26
2023-02-25T06:54:13.218Z,995.30
2023-02-25T06:55:13.236Z,995.34
2023-02-25T06:56:13.229Z,995.31
2023-02-25T06:57:13.210Z,995.36
2023-02-25T06:58:15.423Z,995.39
2023-02-25T06:59:13.222Z,995.33
2023-02-25T07:00:13.213Z,995.43
2023-02-25T07:01:13.283Z,995.39
2023-02-25T07:02:13.225Z,995.47
2023-02-25T07:03:13.242Z,995.46
2023-02-25T07:04:13.283Z,995.48
2023-02-25T07:05:13.222Z,995.45
2023-02-25T07:06:13.221Z,995.50
2023-02-25T07:07:13.226Z,995.49
2023-02-25T07:08:13.243Z,995.50
2023-02-25T07:09:13.225Z,995.59
2023-02-25T07:10:13.225Z,995.57
2023-02-25T07:11:15.024Z,995.64
2023-02-25T07:12:13.227Z,995.59
2023-02-25T07:13:13.230Z,995.59
2023-02-25T07:14:13.229Z,995.61
2023-02-25T07:15:13.235Z,995.64
2023-02-25T07:16:13.330Z,995.67
2023-02-25T07:17:13.233Z,995.69
2023-02-25T07:18:13.256Z,995.77
2023-02-25T07:19:13.243Z,995.71
2023-02-25T07:20:13.245Z,995.74
2023-02-25T07:21:13.257Z,995.72
2023-02-25T07:22:13.265Z,995.74
2023-02-25T07:23:13.253Z,995.72
2023-02-25T07:24:13.253Z,995.76
2023-02-25T07:25:13.303Z,995.72
2023-02-25T07:26:13.294Z,995.78
2023-02-25T07:27:13.272Z,995.76
2023-02-25T07:28:13.246Z,995.76
2023-02-25T07:29:13.247Z,995.78
2023-02-25T07:30:13.321Z,995.78
2023-02-25T07:31:13.353Z,995.77
2023-02-25T07:32:13.487Z,995.79
2023-02-25T07:33:13.299Z,995.74
2023-02-25T07:34:13.264Z,995.88
2023-02-25T07:35:13.269Z,995.86
2023-02-25T07:36:13.261Z,995.88
2023-02-25T07:37:13.270Z,995.88
2023-02-25T07:38:13.268Z,995.85
2023-02-25T07:39:13.273Z,995.86
2023-02-25T07:40:13.272Z,995.94
2023-02-25T07:41:13.272Z,995.89
2023-02-25T07:42:13.274Z,995.95
2023-02-25T07:43:13.291Z,995.92
2023-02-25T07:44:13.274Z,995.93
2023-02-25T07:45:13.276Z,995.96
2023-02-25T07:46:13.523Z,995.93
2023-02-25T07:47:13.286Z,995.94
2023-02-25T07:48:13.283Z,995.99
2023-02-25T07:49:13.279Z,995.95
2023-02-25T07:50:13.288Z,996.01
2023-02-25T07:51:13.301Z,996.03
2023-02-25T07:52:13.291Z,995.96
2023-02-25T07:53:13.291Z,996.04
2023-02-25T07:54:13.294Z,996.07
2023-02-25T07:55:13.286Z,996.05
2023-02-25T07:56:13.297Z,996.06
2023-02-25T07:57:13.301Z,996.13
2023-02-25T07:58:13.295Z,996.16
2023-02-25T07:59:13.422Z,996.11
2023-02-25T08:00:13.297Z,996.14
2023-02-25T08:01:13.302Z,996.18
2023-02-25T08:02:13.400Z,996.06
2023-02-25T08:03:13.310Z,996.22
2023-02-25T08:04:13.404Z,996.19
2023-02-25T08:05:13.309Z,996.23
2023-02-25T08:06:13.305Z,996.30
2023-02-25T08:07:13.313Z,996.25
2023-02-25T08:08:13.310Z,996.24
2023-02-25T08:09:13.323Z,996.29
2023-02-25T08:10:13.310Z,996.34
2023-02-25T08:11:13.312Z,996.35
2023-02-25T08:12:13.322Z,996.32
2023-02-25T08:13:13.322Z,996.35
2023-02-25T08:14:13.317Z,996.32
2023-02-25T08:15:13.348Z,996.36
2023-02-25T08:16:13.372Z,996.38
2023-02-25T08:17:13.321Z,996.37
2023-02-25T08:18:13.323Z,996.43
2023-02-25T08:19:13.334Z,996.42
2023-02-25T08:20:13.331Z,996.48
2023-02-25T08:21:13.336Z,996.40
2023-02-25T08:22:13.365Z,996.46
2023-02-25T08:23:13.335Z,996.40
2023-02-25T08:24:13.330Z,996.46
2023-02-25T08:25:13.341Z,996.46
2023-02-25T08:26:13.345Z,996.51
2023-02-25T08:27:13.347Z,996.52
2023-02-25T08:28:13.336Z,996.53
2023-02-25T08:29:13.339Z,996.55
2023-02-25T08:30:13.349Z,996.56
2023-02-25T08:31:13.525Z,996.56
2023-02-25T08:32:13.489Z,996.59
2023-02-25T08:33:13.347Z,996.59
2023-02-25T08:34:13.348Z,996.56
2023-02-25T08:35:13.356Z,996.61
2023-02-25T08:36:13.357Z,996.61
2023-02-25T08:37:13.360Z,996.61
2023-02-25T08:38:13.354Z,996.63
2023-02-25T08:39:13.363Z,996.62
2023-02-25T08:40:13.355Z,996.64
2023-02-25T08:41:13.358Z,996.71
2023-02-25T08:42:13.361Z,996.68
2023-02-25T08:43:13.361Z,996.73
2023-02-25T08:44:13.369Z,996.76
2023-02-25T08:45:13.396Z,996.73
2023-02-25T08:46:13.423Z,996.72
2023-02-25T08:47:13.392Z,996.73
2023-02-25T08:48:13.368Z,996.74
2023-02-25T08:49:13.374Z,996.78
2023-02-25T08:50:13.377Z,996.80
2023-02-25T08:51:13.378Z,996.79
2023-02-25T08:52:13.381Z,996.85
2023-02-25T08:53:13.372Z,996.88
2023-02-25T08:54:13.386Z,996.80
2023-02-25T08:55:13.382Z,996.81
2023-02-25T08:56:13.385Z,996.84
2023-02-25T08:57:13.385Z,996.90
2023-02-25T08:58:13.393Z,996.87
2023-02-25T08:59:13.384Z,996.90
2023-02-25T09:00:13.389Z,996.95
2023-02-25T09:01:13.506Z,996.95
2023-02-25T09:02:13.394Z,996.96
2023-02-25T09:03:13.416Z,996.94
2023-02-25T09:04:13.470Z,996.87
2023-02-25T09:05:13.405Z,997.03
2023-02-25T09:06:13.401Z,997.01
2023-02-25T09:07:13.401Z,996.98
2023-02-25T09:08:13.415Z,997.00
2023-02-25T09:09:13.421Z,997.04
2023-02-25T09:10:13.399Z,997.05
2023-02-25T09:11:13.402Z,997.05
2023-02-25T09:12:13.404Z,997.12
2023-02-25T09:13:13.410Z,997.12
2023-02-25T09:14:13.406Z,997.11
2023-02-25T09:15:13.413Z,997.16
2023-02-25T09:16:13.433Z,997.14
2023-02-25T09:17:13.417Z,997.16
2023-02-25T09:18:13.420Z,997.14
2023-02-25T09:19:13.435Z,997.17
2023-02-25T09:20:13.414Z,997.17
2023-02-25T09:21:13.420Z,997.20
2023-02-25T09:22:13.422Z,997.17
2023-02-25T09:23:13.427Z,997.19
2023-02-25T09:24:13.427Z,997.21
2023-02-25T09:25:13.424Z,997.29
2023-02-25T09:26:13.430Z,997.27
2023-02-25T09:27:13.437Z,997.29
2023-02-25T09:28:13.427Z,997.26
2023-02-25T09:29:13.429Z,997.33
2023-02-25T09:30:13.440Z,997.30
2023-02-25T09:31:13.559Z,997.28
2023-02-25T09:32:13.566Z,997.27
2023-02-25T09:33:13.548Z,997.35
2023-02-25T09:34:13.451Z,997.39
2023-02-25T09:35:13.472Z,997.38
2023-02-25T09:36:13.444Z,997.36
2023-02-25T09:37:13.450Z,997.40
2023-02-25T09:38:13.447Z,997.51
2023-02-25T09:39:13.478Z,997.46
2023-02-25T09:40:13.457Z,997.50
2023-02-25T09:41:13.450Z,997.50
2023-02-25T09:42:13.454Z,997.48
2023-02-25T09:43:13.462Z,997.52
2023-02-25T09:44:13.470Z,997.55
2023-02-25T09:45:13.458Z,997.59
2023-02-25T09:46:13.621Z,997.56
2023-02-25T09:47:13.470Z,997.56
2023-02-25T09:48:13.480Z,997.59
2023-02-25T09:49:13.476Z,997.61
2023-02-25T09:50:13.472Z,997.65
2023-02-25T09:51:13.496Z,997.62
2023-02-25T09:52:13.472Z,997.64
2023-02-25T09:53:13.483Z,997.69
2023-02-25T09:54:13.487Z,997.65
2023-02-25T09:55:13.494Z,997.63
2023-02-25T09:56:13.498Z,997.66
2023-02-25T09:57:13.487Z,997.72
2023-02-25T09:58:13.492Z,997.71
2023-02-25T09:59:13.501Z,997.70
2023-02-25T10:00:13.514Z,997.65
2023-02-25T10:01:13.504Z,997.72
2023-02-25T10:02:13.634Z,997.74
2023-02-25T10:03:13.727Z,997.66
2023-02-25T10:04:13.524Z,997.77
2023-02-25T10:05:13.520Z,997.75
2023-02-25T10:06:13.513Z,997.74
2023-02-25T10:07:13.539Z,997.83
2023-02-25T10:08:13.525Z,997.83
2023-02-25T10:09:13.530Z,997.77
2023-02-25T10:10:13.534Z,997.84
2023-02-25T10:11:13.540Z,997.89
2023-02-25T10:12:13.564Z,997.85
2023-02-25T10:13:13.542Z,997.87
2023-02-25T10:14:13.534Z,997.92
2023-02-25T10:15:13.551Z,997.95
2023-02-25T10:16:13.549Z,997.89
2023-02-25T10:17:13.557Z,998.01
2023-02-25T10:18:13.574Z,997.93
2023-02-25T10:19:13.554Z,997.97
2023-02-25T10:20:13.569Z,997.96
2023-02-25T10:21:13.568Z,998.01
2023-02-25T10:22:13.568Z,998.02
2023-02-25T10:23:13.593Z,998.05
2023-02-25T10:24:13.576Z,998.04
2023-02-25T10:25:13.571Z,998.06
2023-02-25T10:26:13.579Z,998.07
2023-02-25T10:27:13.586Z,998.10
2023-02-25T10:28:13.584Z,998.09
2023-02-25T10:29:13.609Z,998.14
2023-02-25T10:30:13.583Z,998.13
2023-02-25T10:31:13.759Z,998.15
2023-02-25T10:32:13.833Z,998.13
2023-02-25T10:33:13.604Z,998.16
2023-02-25T10:34:13.599Z,998.19
2023-02-25T10:35:13.619Z,998.16
2023-02-25T10:36:13.602Z,998.21
2023-02-25T10:37:13.613Z,998.18
2023-02-25T10:38:13.618Z,998.21
2023-02-25T10:39:13.631Z,998.17
2023-02-25T10:40:13.616Z,998.23
2023-02-25T10:41:13.622Z,998.26
2023-02-25T10:42:13.634Z,998.26
2023-02-25T10:43:13.628Z,998.24
2023-02-25T10:44:13.637Z,998.28
2023-02-25T10:45:14.966Z,998.25
2023-02-25T10:46:13.661Z,998.31
2023-02-25T10:47:13.640Z,998.25
2023-02-25T10:48:13.653Z,998.30
2023-02-25T10:49:16.304Z,998.34
2023-02-25T10:50:13.647Z,998.27
2023-02-25T10:51:13.650Z,998.25
2023-02-25T10:52:13.653Z,998.30
2023-02-25T10:53:13.648Z,998.31
2023-02-25T10:54:13.662Z,998.30
2023-02-25T10:55:13.681Z,998.38
2023-02-25T10:56:13.660Z,998.30
2023-02-25T10:57:13.677Z,998.36
2023-02-25T10:58:13.663Z,998.41
2023-02-25T10:59:13.676Z,998.42
2023-02-25T11:00:13.670Z,998.42
2023-02-25T11:01:13.913Z,998.40
2023-02-25T11:02:13.741Z,998.43
2023-02-25T11:03:13.682Z,998.48
2023-02-25T11:04:13.689Z,998.49
2023-02-25T11:05:13.699Z,998.54
2023-02-25T11:06:13.717Z,998.44
2023-02-25T11:07:13.700Z,998.41
2023-02-25T11:08:13.714Z,998.46
2023-02-25T11:09:13.716Z,998.44
2023-02-25T11:10:13.735Z,998.50
2023-02-25T11:11:13.748Z,998.51
2023-02-25T11:12:13.729Z,998.48
2023-02-25T11:13:13.735Z,998.47
2023-02-25T11:14:13.736Z,998.42
2023-02-25T11:15:13.757Z,998.39
2023-02-25T11:16:13.794Z,998.47
2023-02-25T11:17:13.744Z,998.43
2023-02-25T11:18:13.756Z,998.43
2023-02-25T11:19:13.763Z,998.48
2023-02-25T11:20:13.761Z,998.46
2023-02-25T11:21:13.762Z,998.41
2023-02-25T11:22:13.777Z,998.46
2023-02-25T11:23:13.781Z,998.45
2023-02-25T11:24:13.795Z,998.46
2023-02-25T11:25:13.790Z,998.45
2023-02-25T11:26:13.799Z,998.48
2023-02-25T11:27:13.813Z,998.36
2023-02-25T11:28:13.806Z,998.47
2023-02-25T11:29:13.812Z,998.44
2023-02-25T11:30:13.818Z,998.40
2023-02-25T11:31:13.961Z,998.47
2023-02-25T11:32:13.974Z,998.45
2023-02-25T11:33:13.832Z,998.49
2023-02-25T11:34:13.835Z,998.45
2023-02-25T11:36:13.838Z,998.45
2023-02-25T11:37:13.850Z,998.48
2023-02-25T11:38:13.851Z,998.49
2023-02-25T11:39:13.862Z,998.49
2023-02-25T11:40:13.873Z,998.54
2023-02-25T11:41:13.871Z,998.53
2023-02-25T11:42:13.873Z,998.58
2023-02-25T11:43:13.904Z,998.52
2023-02-25T11:44:13.891Z,998.51
2023-02-25T11:45:13.909Z,998.58
2023-02-25T11:46:14.051Z,998.60
2023-02-25T11:47:13.895Z,998.64
2023-02-25T11:48:13.906Z,998.73
2023-02-25T11:49:13.908Z,998.72
2023-02-25T11:50:13.918Z,998.75
2023-02-25T11:51:13.913Z,998.82
2023-02-25T11:52:13.918Z,998.74
2023-02-25T11:53:14.009Z,998.84
2023-02-25T11:54:14.005Z,998.89
2023-02-25T11:55:13.943Z,998.84
2023-02-25T11:56:13.950Z,998.84
2023-02-25T11:57:13.949Z,998.91
2023-02-25T11:58:13.960Z,998.90
2023-02-25T11:59:13.998Z,998.88
2023-02-25T12:00:13.966Z,998.82
2023-02-25T12:01:13.957Z,998.86
2023-02-25T12:02:13.982Z,998.84
2023-02-25T12:03:13.968Z,998.85
2023-02-25T12:04:13.984Z,998.91
2023-02-25T12:05:13.993Z,998.86
2023-02-25T12:06:13.984Z,998.87
2023-02-25T12:07:13.996Z,998.90
2023-02-25T12:08:14.487Z,998.93
2023-02-25T12:09:13.998Z,998.92
2023-02-25T12:10:13.997Z,998.95
2023-02-25T12:11:14.004Z,998.95
2023-02-25T12:12:14.006Z,998.98
2023-02-25T12:13:14.007Z,998.92
2023-02-25T12:14:14.013Z,998.91
2023-02-25T12:15:14.030Z,998.93
2023-02-25T12:16:14.035Z,998.89
2023-02-25T12:17:14.046Z,998.93
2023-02-25T12:18:14.028Z,998.91
2023-02-25T12:19:14.031Z,998.95
2023-02-25T12:20:14.041Z,998.96
2023-02-25T12:21:14.040Z,999.01
2023-02-25T12:22:14.041Z,999.04
2023-02-25T12:23:14.042Z,999.03
2023-02-25T12:24:14.042Z,999.11
2023-02-25T12:25:14.048Z,999.16
2023-02-25T12:26:14.060Z,999.15
2023-02-25T12:27:14.064Z,999.13
2023-02-25T12:28:14.065Z,999.16
2023-02-25T12:29:14.064Z,999.18